sensor_id;sensor_type;location;lat;lon;timestamp;P1;durP1;ratioP1;P2;durP2;ratioP2
55647;SDS011;45266;48.756;9.246;2023-05-07T00:00:40;6.00;;;2.28;;
55647;SDS011;45266;48.756;9.246;2023-05-07T00:01:43;4.45;;;2.40;;
55647;SDS011;45266;48.756;9.246;2023-05-07T00:02:45;2.95;;;2.30;;
55647;SDS011;45266;48.756;9.246;2023-05-07T00:03:47;2.97;;;2.53;;
55647;SDS011;45266;48.756;9.246;2023-05-07T00:04:50;4.38;;;2.40;;
55647;SDS011;45266;48.756;9.246;2023-05-07T00:05:53;3.20;;;2.55;;
55647;SDS011;45266;48.756;9.246;2023-05-07T00:06:54;2.83;;;2.22;;
55647;SDS011;45266;48.756;9.246;2023-05-07T00:07:56;2.40;;;2.20;;
55647;SDS011;45266;48.756;9.246;2023-05-07T00:09:00;3.47;;;2.03;;
55647;SDS011;45266;48.756;9.246;2023-05-07T00:10:02;3.08;;;2.10;;
55647;SDS011;45266;48.756;9.246;2023-05-07T00:11:04;2.80;;;2.20;;
55647;SDS011;45266;48.756;9.246;2023-05-07T00:12:07;4.28;;;2.40;;
55647;SDS011;45266;48.756;9.246;2023-05-07T00:13:08;2.58;;;2.20;;
55647;SDS011;45266;48.756;9.246;2023-05-07T00:14:10;2.42;;;2.20;;
55647;SDS011;45266;48.756;9.246;2023-05-07T00:15:12;3.58;;;2.45;;
55647;SDS011;45266;48.756;9.246;2023-05-07T00:16:14;2.90;;;2.47;;
55647;SDS011;45266;48.756;9.246;2023-05-07T00:17:16;3.35;;;2.30;;
55647;SDS011;45266;48.756;9.246;2023-05-07T00:18:18;2.10;;;1.90;;
55647;SDS011;45266;48.756;9.246;2023-05-07T00:19:22;3.20;;;1.92;;
55647;SDS011;45266;48.756;9.246;2023-05-07T00:20:23;3.28;;;2.20;;
55647;SDS011;45266;48.756;9.246;2023-05-07T00:21:25;2.28;;;2.08;;
55647;SDS011;45266;48.756;9.246;2023-05-07T00:22:28;3.25;;;2.20;;
55647;SDS011;45266;48.756;9.246;2023-05-07T00:23:31;2.60;;;2.35;;
55647;SDS011;45266;48.756;9.246;2023-05-07T00:24:33;6.60;;;1.98;;
55647;SDS011;45266;48.756;9.246;2023-05-07T00:25:34;3.50;;;2.05;;
55647;SDS011;45266;48.756;9.246;2023-05-07T00:26:36;4.60;;;2.50;;
55647;SDS011;45266;48.756;9.246;2023-05-07T00:27:38;3.30;;;2.20;;
55647;SDS011;45266;48.756;9.246;2023-05-07T00:28:40;2.90;;;2.38;;
55647;SDS011;45266;48.756;9.246;2023-05-07T00:29:42;3.58;;;2.10;;
55647;SDS011;45266;48.756;9.246;2023-05-07T00:30:44;2.40;;;2.17;;
55647;SDS011;45266;48.756;9.246;2023-05-07T00:31:46;2.55;;;2.35;;
55647;SDS011;45266;48.756;9.246;2023-05-07T00:32:50;5.25;;;2.25;;
55647;SDS011;45266;48.756;9.246;2023-05-07T00:33:52;4.47;;;2.20;;
55647;SDS011;45266;48.756;9.246;2023-05-07T00:34:54;8.55;;;2.50;;
55647;SDS011;45266;48.756;9.246;2023-05-07T00:35:56;5.30;;;2.17;;
55647;SDS011;45266;48.756;9.246;2023-05-07T00:36:58;3.25;;;2.30;;
55647;SDS011;45266;48.756;9.246;2023-05-07T00:38:00;2.67;;;2.47;;
55647;SDS011;45266;48.756;9.246;2023-05-07T00:39:01;2.22;;;2.03;;
55647;SDS011;45266;48.756;9.246;2023-05-07T00:40:05;2.55;;;2.20;;
55647;SDS011;45266;48.756;9.246;2023-05-07T00:41:09;2.20;;;2.00;;
55647;SDS011;45266;48.756;9.246;2023-05-07T00:42:11;3.72;;;2.20;;
55647;SDS011;45266;48.756;9.246;2023-05-07T00:43:12;4.28;;;2.28;;
55647;SDS011;45266;48.756;9.246;2023-05-07T00:44:14;5.80;;;2.13;;
55647;SDS011;45266;48.756;9.246;2023-05-07T00:45:16;3.80;;;2.33;;
55647;SDS011;45266;48.756;9.246;2023-05-07T00:46:19;2.53;;;1.98;;
55647;SDS011;45266;48.756;9.246;2023-05-07T00:47:22;3.78;;;2.75;;
55647;SDS011;45266;48.756;9.246;2023-05-07T00:48:24;3.45;;;2.25;;
55647;SDS011;45266;48.756;9.246;2023-05-07T00:49:35;3.08;;;2.45;;
55647;SDS011;45266;48.756;9.246;2023-05-07T00:50:40;2.78;;;2.40;;
55647;SDS011;45266;48.756;9.246;2023-05-07T00:51:42;3.67;;;2.50;;
55647;SDS011;45266;48.756;9.246;2023-05-07T00:52:43;2.65;;;2.15;;
55647;SDS011;45266;48.756;9.246;2023-05-07T00:53:45;2.53;;;2.30;;
55647;SDS011;45266;48.756;9.246;2023-05-07T00:54:48;3.55;;;2.38;;
55647;SDS011;45266;48.756;9.246;2023-05-07T00:55:50;2.30;;;2.10;;
55647;SDS011;45266;48.756;9.246;2023-05-07T00:56:52;3.63;;;2.30;;
55647;SDS011;45266;48.756;9.246;2023-05-07T00:57:55;2.40;;;2.13;;
55647;SDS011;45266;48.756;9.246;2023-05-07T00:58:57;3.78;;;2.35;;
55647;SDS011;45266;48.756;9.246;2023-05-07T00:59:59;3.08;;;2.20;;
55647;SDS011;45266;48.756;9.246;2023-05-07T01:01:01;2.67;;;2.30;;
55647;SDS011;45266;48.756;9.246;2023-05-07T01:02:03;2.72;;;2.10;;
55647;SDS011;45266;48.756;9.246;2023-05-07T01:03:05;3.15;;;2.15;;
55647;SDS011;45266;48.756;9.246;2023-05-07T01:04:07;2.58;;;2.38;;
55647;SDS011;45266;48.756;9.246;2023-05-07T01:05:12;3.53;;;2.40;;
55647;SDS011;45266;48.756;9.246;2023-05-07T01:06:16;2.33;;;2.13;;
55647;SDS011;45266;48.756;9.246;2023-05-07T01:07:19;2.50;;;2.30;;
55647;SDS011;45266;48.756;9.246;2023-05-07T01:08:21;4.07;;;2.30;;
55647;SDS011;45266;48.756;9.246;2023-05-07T01:09:24;2.25;;;2.08;;
55647;SDS011;45266;48.756;9.246;2023-05-07T01:10:26;2.97;;;2.20;;
55647;SDS011;45266;48.756;9.246;2023-05-07T01:11:29;4.10;;;2.50;;
55647;SDS011;45266;48.756;9.246;2023-05-07T01:12:30;2.38;;;2.10;;
55647;SDS011;45266;48.756;9.246;2023-05-07T01:13:33;4.47;;;2.47;;
55647;SDS011;45266;48.756;9.246;2023-05-07T01:14:36;2.60;;;2.35;;
55647;SDS011;45266;48.756;9.246;2023-05-07T01:15:38;3.83;;;2.40;;
55647;SDS011;45266;48.756;9.246;2023-05-07T01:16:41;2.42;;;2.10;;
55647;SDS011;45266;48.756;9.246;2023-05-07T01:17:43;2.53;;;2.33;;
55647;SDS011;45266;48.756;9.246;2023-05-07T01:18:45;4.28;;;2.30;;
55647;SDS011;45266;48.756;9.246;2023-05-07T01:19:49;4.78;;;2.03;;
55647;SDS011;45266;48.756;9.246;2023-05-07T01:20:51;3.05;;;2.40;;
55647;SDS011;45266;48.756;9.246;2023-05-07T01:21:53;4.28;;;2.40;;
55647;SDS011;45266;48.756;9.246;2023-05-07T01:23:04;2.10;;;1.95;;
55647;SDS011;45266;48.756;9.246;2023-05-07T01:24:08;3.55;;;2.40;;
55647;SDS011;45266;48.756;9.246;2023-05-07T01:25:10;3.25;;;2.53;;
55647;SDS011;45266;48.756;9.246;2023-05-07T01:26:12;3.17;;;2.40;;
55647;SDS011;45266;48.756;9.246;2023-05-07T01:27:13;3.58;;;2.42;;
55647;SDS011;45266;48.756;9.246;2023-05-07T01:28:15;2.80;;;2.50;;
55647;SDS011;45266;48.756;9.246;2023-05-07T01:29:17;4.43;;;2.47;;
55647;SDS011;45266;48.756;9.246;2023-05-07T01:30:20;3.65;;;2.40;;
55647;SDS011;45266;48.756;9.246;2023-05-07T01:31:23;3.00;;;2.50;;
55647;SDS011;45266;48.756;9.246;2023-05-07T01:32:32;2.90;;;2.20;;
55647;SDS011;45266;48.756;9.246;2023-05-07T01:33:42;2.67;;;2.17;;
55647;SDS011;45266;48.756;9.246;2023-05-07T01:34:45;4.32;;;2.40;;
55647;SDS011;45266;48.756;9.246;2023-05-07T01:35:53;2.97;;;2.30;;
55647;SDS011;45266;48.756;9.246;2023-05-07T01:36:55;2.47;;;2.15;;
55647;SDS011;45266;48.756;9.246;2023-05-07T01:37:59;2.38;;;2.17;;
55647;SDS011;45266;48.756;9.246;2023-05-07T01:39:01;2.42;;;2.22;;
55647;SDS011;45266;48.756;9.246;2023-05-07T01:40:03;3.22;;;2.08;;
55647;SDS011;45266;48.756;9.246;2023-05-07T01:41:06;4.38;;;2.33;;
55647;SDS011;45266;48.756;9.246;2023-05-07T01:42:08;4.55;;;2.40;;
55647;SDS011;45266;48.756;9.246;2023-05-07T01:43:10;3.00;;;2.47;;
55647;SDS011;45266;48.756;9.246;2023-05-07T01:44:12;3.97;;;2.60;;
55647;SDS011;45266;48.756;9.246;2023-05-07T01:45:15;3.90;;;2.42;;
55647;SDS011;45266;48.756;9.246;2023-05-07T01:46:18;2.30;;;2.10;;
55647;SDS011;45266;48.756;9.246;2023-05-07T01:47:20;3.40;;;2.13;;
55647;SDS011;45266;48.756;9.246;2023-05-07T01:48:22;2.67;;;2.45;;
55647;SDS011;45266;48.756;9.246;2023-05-07T01:49:26;2.70;;;2.50;;
55647;SDS011;45266;48.756;9.246;2023-05-07T01:50:28;2.85;;;2.42;;
55647;SDS011;45266;48.756;9.246;2023-05-07T01:51:31;3.25;;;2.40;;
55647;SDS011;45266;48.756;9.246;2023-05-07T01:52:34;2.45;;;2.22;;
55647;SDS011;45266;48.756;9.246;2023-05-07T01:53:38;3.47;;;2.35;;
55647;SDS011;45266;48.756;9.246;2023-05-07T01:54:40;2.88;;;2.50;;
55647;SDS011;45266;48.756;9.246;2023-05-07T01:55:42;3.97;;;2.55;;
55647;SDS011;45266;48.756;9.246;2023-05-07T01:56:44;4.47;;;2.60;;
55647;SDS011;45266;48.756;9.246;2023-05-07T01:57:46;3.30;;;2.40;;
55647;SDS011;45266;48.756;9.246;2023-05-07T01:58:47;2.40;;;2.20;;
55647;SDS011;45266;48.756;9.246;2023-05-07T01:59:50;3.28;;;2.30;;
55647;SDS011;45266;48.756;9.246;2023-05-07T02:00:51;2.88;;;2.63;;
55647;SDS011;45266;48.756;9.246;2023-05-07T02:01:53;2.75;;;2.10;;
55647;SDS011;45266;48.756;9.246;2023-05-07T02:02:55;2.53;;;2.33;;
55647;SDS011;45266;48.756;9.246;2023-05-07T02:03:57;3.45;;;2.53;;
55647;SDS011;45266;48.756;9.246;2023-05-07T02:04:59;3.10;;;2.40;;
55647;SDS011;45266;48.756;9.246;2023-05-07T02:06:02;2.80;;;2.60;;
55647;SDS011;45266;48.756;9.246;2023-05-07T02:07:04;2.67;;;2.47;;
55647;SDS011;45266;48.756;9.246;2023-05-07T02:08:05;2.25;;;2.05;;
55647;SDS011;45266;48.756;9.246;2023-05-07T02:09:07;5.25;;;2.65;;
55647;SDS011;45266;48.756;9.246;2023-05-07T02:10:10;3.58;;;2.78;;
55647;SDS011;45266;48.756;9.246;2023-05-07T02:11:12;3.95;;;2.65;;
55647;SDS011;45266;48.756;9.246;2023-05-07T02:12:13;2.50;;;2.30;;
55647;SDS011;45266;48.756;9.246;2023-05-07T02:13:15;2.47;;;2.28;;
55647;SDS011;45266;48.756;9.246;2023-05-07T02:14:17;5.82;;;2.50;;
55647;SDS011;45266;48.756;9.246;2023-05-07T02:15:21;3.33;;;2.67;;
55647;SDS011;45266;48.756;9.246;2023-05-07T02:16:22;3.53;;;2.30;;
55647;SDS011;45266;48.756;9.246;2023-05-07T02:17:25;2.90;;;2.60;;
55647;SDS011;45266;48.756;9.246;2023-05-07T02:18:27;3.53;;;2.88;;
55647;SDS011;45266;48.756;9.246;2023-05-07T02:19:28;3.58;;;2.40;;
55647;SDS011;45266;48.756;9.246;2023-05-07T02:20:30;3.45;;;2.40;;
55647;SDS011;45266;48.756;9.246;2023-05-07T02:21:32;3.38;;;2.17;;
55647;SDS011;45266;48.756;9.246;2023-05-07T02:22:34;4.40;;;2.50;;
55647;SDS011;45266;48.756;9.246;2023-05-07T02:23:35;4.45;;;2.83;;
55647;SDS011;45266;48.756;9.246;2023-05-07T02:24:37;4.65;;;2.90;;
55647;SDS011;45266;48.756;9.246;2023-05-07T02:25:39;3.17;;;2.30;;
55647;SDS011;45266;48.756;9.246;2023-05-07T02:26:41;3.22;;;2.42;;
55647;SDS011;45266;48.756;9.246;2023-05-07T02:27:43;4.93;;;2.53;;
55647;SDS011;45266;48.756;9.246;2023-05-07T02:28:44;4.40;;;2.60;;
55647;SDS011;45266;48.756;9.246;2023-05-07T02:29:46;3.33;;;2.40;;
55647;SDS011;45266;48.756;9.246;2023-05-07T02:30:48;2.67;;;2.47;;
55647;SDS011;45266;48.756;9.246;2023-05-07T02:31:50;3.10;;;2.45;;
55647;SDS011;45266;48.756;9.246;2023-05-07T02:32:54;3.33;;;2.65;;
55647;SDS011;45266;48.756;9.246;2023-05-07T02:33:56;3.35;;;2.65;;
55647;SDS011;45266;48.756;9.246;2023-05-07T02:34:57;3.22;;;2.20;;
55647;SDS011;45266;48.756;9.246;2023-05-07T02:36:06;3.55;;;2.10;;
55647;SDS011;45266;48.756;9.246;2023-05-07T02:37:09;4.90;;;2.47;;
55647;SDS011;45266;48.756;9.246;2023-05-07T02:38:10;3.20;;;2.60;;
55647;SDS011;45266;48.756;9.246;2023-05-07T02:39:12;2.78;;;2.45;;
55647;SDS011;45266;48.756;9.246;2023-05-07T02:40:15;3.10;;;2.80;;
55647;SDS011;45266;48.756;9.246;2023-05-07T02:41:16;2.70;;;2.50;;
55647;SDS011;45266;48.756;9.246;2023-05-07T02:42:18;3.08;;;2.63;;
55647;SDS011;45266;48.756;9.246;2023-05-07T02:43:20;4.43;;;2.10;;
55647;SDS011;45266;48.756;9.246;2023-05-07T02:44:22;3.05;;;2.60;;
55647;SDS011;45266;48.756;9.246;2023-05-07T02:45:24;3.35;;;2.58;;
55647;SDS011;45266;48.756;9.246;2023-05-07T02:46:25;3.40;;;2.50;;
55647;SDS011;45266;48.756;9.246;2023-05-07T02:47:27;4.00;;;2.67;;
55647;SDS011;45266;48.756;9.246;2023-05-07T02:48:29;2.60;;;2.40;;
55647;SDS011;45266;48.756;9.246;2023-05-07T02:49:31;2.97;;;2.30;;
55647;SDS011;45266;48.756;9.246;2023-05-07T02:50:33;3.17;;;2.70;;
55647;SDS011;45266;48.756;9.246;2023-05-07T02:51:35;4.38;;;2.35;;
55647;SDS011;45266;48.756;9.246;2023-05-07T02:52:36;3.58;;;2.45;;
55647;SDS011;45266;48.756;9.246;2023-05-07T02:53:38;3.03;;;2.40;;
55647;SDS011;45266;48.756;9.246;2023-05-07T02:54:40;2.58;;;2.30;;
55647;SDS011;45266;48.756;9.246;2023-05-07T02:55:42;2.60;;;2.40;;
55647;SDS011;45266;48.756;9.246;2023-05-07T02:56:44;3.65;;;2.75;;
55647;SDS011;45266;48.756;9.246;2023-05-07T02:57:46;3.13;;;2.47;;
55647;SDS011;45266;48.756;9.246;2023-05-07T02:58:48;4.07;;;2.40;;
55647;SDS011;45266;48.756;9.246;2023-05-07T02:59:50;2.97;;;2.60;;
55647;SDS011;45266;48.756;9.246;2023-05-07T03:00:52;4.53;;;3.05;;
55647;SDS011;45266;48.756;9.246;2023-05-07T03:01:55;4.00;;;2.83;;
55647;SDS011;45266;48.756;9.246;2023-05-07T03:02:57;3.67;;;2.33;;
55647;SDS011;45266;48.756;9.246;2023-05-07T03:03:59;2.70;;;2.50;;
55647;SDS011;45266;48.756;9.246;2023-05-07T03:05:01;3.67;;;2.45;;
55647;SDS011;45266;48.756;9.246;2023-05-07T03:06:03;3.70;;;2.55;;
55647;SDS011;45266;48.756;9.246;2023-05-07T03:07:04;2.70;;;2.50;;
55647;SDS011;45266;48.756;9.246;2023-05-07T03:08:06;4.22;;;2.60;;
55647;SDS011;45266;48.756;9.246;2023-05-07T03:09:08;3.20;;;2.40;;
55647;SDS011;45266;48.756;9.246;2023-05-07T03:10:10;3.45;;;2.45;;
55647;SDS011;45266;48.756;9.246;2023-05-07T03:11:12;3.70;;;2.65;;
55647;SDS011;45266;48.756;9.246;2023-05-07T03:12:14;3.08;;;2.70;;
55647;SDS011;45266;48.756;9.246;2023-05-07T03:13:16;2.97;;;2.60;;
55647;SDS011;45266;48.756;9.246;2023-05-07T03:14:19;4.32;;;2.50;;
55647;SDS011;45266;48.756;9.246;2023-05-07T03:15:22;2.72;;;2.45;;
55647;SDS011;45266;48.756;9.246;2023-05-07T03:16:24;2.65;;;2.30;;
55647;SDS011;45266;48.756;9.246;2023-05-07T03:17:25;4.20;;;2.50;;
55647;SDS011;45266;48.756;9.246;2023-05-07T03:18:27;2.33;;;2.13;;
55647;SDS011;45266;48.756;9.246;2023-05-07T03:19:29;2.95;;;2.63;;
55647;SDS011;45266;48.756;9.246;2023-05-07T03:20:31;3.00;;;2.60;;
55647;SDS011;45266;48.756;9.246;2023-05-07T03:21:33;5.10;;;2.50;;
55647;SDS011;45266;48.756;9.246;2023-05-07T03:22:35;4.63;;;2.40;;
55647;SDS011;45266;48.756;9.246;2023-05-07T03:23:37;3.17;;;2.67;;
55647;SDS011;45266;48.756;9.246;2023-05-07T03:24:39;2.65;;;2.45;;
55647;SDS011;45266;48.756;9.246;2023-05-07T03:25:41;2.97;;;2.63;;
55647;SDS011;45266;48.756;9.246;2023-05-07T03:26:42;5.28;;;2.50;;
55647;SDS011;45266;48.756;9.246;2023-05-07T03:27:44;5.13;;;2.67;;
55647;SDS011;45266;48.756;9.246;2023-05-07T03:28:46;3.58;;;2.58;;
55647;SDS011;45266;48.756;9.246;2023-05-07T03:29:48;5.45;;;2.70;;
55647;SDS011;45266;48.756;9.246;2023-05-07T03:30:50;4.53;;;2.53;;
55647;SDS011;45266;48.756;9.246;2023-05-07T03:31:52;3.53;;;2.50;;
55647;SDS011;45266;48.756;9.246;2023-05-07T03:32:54;3.75;;;2.65;;
55647;SDS011;45266;48.756;9.246;2023-05-07T03:33:56;3.08;;;2.78;;
55647;SDS011;45266;48.756;9.246;2023-05-07T03:34:58;3.40;;;2.50;;
55647;SDS011;45266;48.756;9.246;2023-05-07T03:36:00;2.85;;;2.42;;
55647;SDS011;45266;48.756;9.246;2023-05-07T03:37:02;2.95;;;2.63;;
55647;SDS011;45266;48.756;9.246;2023-05-07T03:38:04;2.80;;;2.60;;
55647;SDS011;45266;48.756;9.246;2023-05-07T03:39:06;2.90;;;2.47;;
55647;SDS011;45266;48.756;9.246;2023-05-07T03:40:08;3.05;;;2.67;;
55647;SDS011;45266;48.756;9.246;2023-05-07T03:41:12;2.50;;;2.30;;
55647;SDS011;45266;48.756;9.246;2023-05-07T03:42:14;2.63;;;2.38;;
55647;SDS011;45266;48.756;9.246;2023-05-07T03:43:16;2.53;;;2.30;;
55647;SDS011;45266;48.756;9.246;2023-05-07T03:44:18;3.63;;;2.60;;
55647;SDS011;45266;48.756;9.246;2023-05-07T03:45:19;3.20;;;2.40;;
55647;SDS011;45266;48.756;9.246;2023-05-07T03:46:21;3.72;;;2.60;;
55647;SDS011;45266;48.756;9.246;2023-05-07T03:47:23;4.15;;;2.78;;
55647;SDS011;45266;48.756;9.246;2023-05-07T03:48:25;4.55;;;2.85;;
55647;SDS011;45266;48.756;9.246;2023-05-07T03:49:27;4.68;;;2.70;;
55647;SDS011;45266;48.756;9.246;2023-05-07T03:50:29;3.05;;;2.72;;
55647;SDS011;45266;48.756;9.246;2023-05-07T03:51:30;4.60;;;2.55;;
55647;SDS011;45266;48.756;9.246;2023-05-07T03:52:32;3.33;;;3.03;;
55647;SDS011;45266;48.756;9.246;2023-05-07T03:53:34;3.92;;;2.70;;
55647;SDS011;45266;48.756;9.246;2023-05-07T03:54:36;3.70;;;2.80;;
55647;SDS011;45266;48.756;9.246;2023-05-07T03:55:38;4.10;;;2.80;;
55647;SDS011;45266;48.756;9.246;2023-05-07T03:56:39;4.10;;;2.80;;
55647;SDS011;45266;48.756;9.246;2023-05-07T03:57:41;2.90;;;2.60;;
55647;SDS011;45266;48.756;9.246;2023-05-07T03:58:43;2.70;;;2.50;;
55647;SDS011;45266;48.756;9.246;2023-05-07T03:59:45;5.40;;;2.65;;
55647;SDS011;45266;48.756;9.246;2023-05-07T04:00:47;2.75;;;2.50;;
55647;SDS011;45266;48.756;9.246;2023-05-07T04:01:50;3.28;;;2.80;;
55647;SDS011;45266;48.756;9.246;2023-05-07T04:02:52;3.80;;;2.55;;
55647;SDS011;45266;48.756;9.246;2023-05-07T04:03:54;3.28;;;2.60;;
55647;SDS011;45266;48.756;9.246;2023-05-07T04:04:56;5.60;;;2.72;;
55647;SDS011;45266;48.756;9.246;2023-05-07T04:05:58;2.67;;;2.30;;
55647;SDS011;45266;48.756;9.246;2023-05-07T04:07:00;3.33;;;2.63;;
55647;SDS011;45266;48.756;9.246;2023-05-07T04:08:02;4.20;;;3.10;;
55647;SDS011;45266;48.756;9.246;2023-05-07T04:09:03;3.65;;;2.97;;
55647;SDS011;45266;48.756;9.246;2023-05-07T04:10:05;3.42;;;3.00;;
55647;SDS011;45266;48.756;9.246;2023-05-07T04:11:07;2.90;;;2.70;;
55647;SDS011;45266;48.756;9.246;2023-05-07T04:12:09;3.90;;;2.53;;
55647;SDS011;45266;48.756;9.246;2023-05-07T04:13:11;3.40;;;3.10;;
55647;SDS011;45266;48.756;9.246;2023-05-07T04:14:13;3.55;;;2.90;;
55647;SDS011;45266;48.756;9.246;2023-05-07T04:15:14;3.23;;;2.93;;
55647;SDS011;45266;48.756;9.246;2023-05-07T04:16:16;4.45;;;3.40;;
55647;SDS011;45266;48.756;9.246;2023-05-07T04:17:18;6.47;;;2.72;;
55647;SDS011;45266;48.756;9.246;2023-05-07T04:18:20;3.80;;;2.70;;
55647;SDS011;45266;48.756;9.246;2023-05-07T04:19:22;3.50;;;3.10;;
55647;SDS011;45266;48.756;9.246;2023-05-07T04:20:24;4.55;;;3.10;;
55647;SDS011;45266;48.756;9.246;2023-05-07T04:21:26;3.95;;;2.90;;
55647;SDS011;45266;48.756;9.246;2023-05-07T04:22:28;3.85;;;2.65;;
55647;SDS011;45266;48.756;9.246;2023-05-07T04:23:29;3.65;;;2.83;;
55647;SDS011;45266;48.756;9.246;2023-05-07T04:24:32;2.80;;;2.60;;
55647;SDS011;45266;48.756;9.246;2023-05-07T04:25:36;2.92;;;2.58;;
55647;SDS011;45266;48.756;9.246;2023-05-07T04:26:38;3.13;;;2.80;;
55647;SDS011;45266;48.756;9.246;2023-05-07T04:27:40;3.80;;;2.93;;
55647;SDS011;45266;48.756;9.246;2023-05-07T04:28:42;4.88;;;2.80;;
55647;SDS011;45266;48.756;9.246;2023-05-07T04:29:44;3.42;;;2.85;;
55647;SDS011;45266;48.756;9.246;2023-05-07T04:30:48;2.90;;;2.60;;
55647;SDS011;45266;48.756;9.246;2023-05-07T04:31:50;4.40;;;3.33;;
55647;SDS011;45266;48.756;9.246;2023-05-07T04:32:51;4.50;;;3.15;;
55647;SDS011;45266;48.756;9.246;2023-05-07T04:33:54;3.60;;;2.80;;
55647;SDS011;45266;48.756;9.246;2023-05-07T04:34:56;3.50;;;2.90;;
55647;SDS011;45266;48.756;9.246;2023-05-07T04:35:58;5.77;;;2.80;;
55647;SDS011;45266;48.756;9.246;2023-05-07T04:37:03;3.50;;;3.00;;
55647;SDS011;45266;48.756;9.246;2023-05-07T04:38:05;4.85;;;2.95;;
55647;SDS011;45266;48.756;9.246;2023-05-07T04:39:07;4.40;;;2.90;;
55647;SDS011;45266;48.756;9.246;2023-05-07T04:40:09;3.15;;;2.67;;
55647;SDS011;45266;48.756;9.246;2023-05-07T04:41:12;3.25;;;2.95;;
55647;SDS011;45266;48.756;9.246;2023-05-07T04:42:15;3.22;;;2.70;;
55647;SDS011;45266;48.756;9.246;2023-05-07T04:43:17;3.80;;;2.95;;
55647;SDS011;45266;48.756;9.246;2023-05-07T04:44:18;4.03;;;2.83;;
55647;SDS011;45266;48.756;9.246;2023-05-07T04:45:20;3.50;;;2.60;;
55647;SDS011;45266;48.756;9.246;2023-05-07T04:46:22;4.68;;;3.15;;
55647;SDS011;45266;48.756;9.246;2023-05-07T04:47:25;3.33;;;2.85;;
55647;SDS011;45266;48.756;9.246;2023-05-07T04:48:27;5.32;;;3.40;;
55647;SDS011;45266;48.756;9.246;2023-05-07T04:49:30;4.00;;;3.42;;
55647;SDS011;45266;48.756;9.246;2023-05-07T04:50:31;3.45;;;2.63;;
55647;SDS011;45266;48.756;9.246;2023-05-07T04:51:33;4.35;;;2.95;;
55647;SDS011;45266;48.756;9.246;2023-05-07T04:52:35;3.75;;;3.30;;
55647;SDS011;45266;48.756;9.246;2023-05-07T04:53:37;5.32;;;3.00;;
55647;SDS011;45266;48.756;9.246;2023-05-07T04:54:39;4.43;;;3.00;;
55647;SDS011;45266;48.756;9.246;2023-05-07T04:55:41;2.90;;;2.70;;
55647;SDS011;45266;48.756;9.246;2023-05-07T04:56:42;3.28;;;2.92;;
55647;SDS011;45266;48.756;9.246;2023-05-07T04:57:44;3.73;;;2.90;;
55647;SDS011;45266;48.756;9.246;2023-05-07T04:58:46;3.92;;;3.45;;
55647;SDS011;45266;48.756;9.246;2023-05-07T04:59:48;3.17;;;2.60;;
55647;SDS011;45266;48.756;9.246;2023-05-07T05:00:49;3.17;;;2.80;;
55647;SDS011;45266;48.756;9.246;2023-05-07T05:01:51;3.38;;;2.72;;
55647;SDS011;45266;48.756;9.246;2023-05-07T05:02:53;5.80;;;3.00;;
55647;SDS011;45266;48.756;9.246;2023-05-07T05:03:55;5.07;;;2.88;;
55647;SDS011;45266;48.756;9.246;2023-05-07T05:04:57;3.05;;;2.75;;
55647;SDS011;45266;48.756;9.246;2023-05-07T05:06:00;3.47;;;2.50;;
55647;SDS011;45266;48.756;9.246;2023-05-07T05:07:03;3.25;;;2.50;;
55647;SDS011;45266;48.756;9.246;2023-05-07T05:08:05;2.75;;;2.47;;
55647;SDS011;45266;48.756;9.246;2023-05-07T05:09:06;3.25;;;2.95;;
55647;SDS011;45266;48.756;9.246;2023-05-07T05:10:08;3.85;;;2.88;;
55647;SDS011;45266;48.756;9.246;2023-05-07T05:11:11;4.20;;;2.70;;
55647;SDS011;45266;48.756;9.246;2023-05-07T05:12:12;3.08;;;2.78;;
55647;SDS011;45266;48.756;9.246;2023-05-07T05:13:14;3.90;;;3.08;;
55647;SDS011;45266;48.756;9.246;2023-05-07T05:14:16;4.13;;;3.13;;
55647;SDS011;45266;48.756;9.246;2023-05-07T05:15:18;4.53;;;3.05;;
55647;SDS011;45266;48.756;9.246;2023-05-07T05:16:19;3.30;;;2.70;;
55647;SDS011;45266;48.756;9.246;2023-05-07T05:17:21;3.65;;;3.00;;
55647;SDS011;45266;48.756;9.246;2023-05-07T05:18:23;3.10;;;2.80;;
55647;SDS011;45266;48.756;9.246;2023-05-07T05:19:25;3.38;;;2.90;;
55647;SDS011;45266;48.756;9.246;2023-05-07T05:20:26;4.13;;;3.10;;
55647;SDS011;45266;48.756;9.246;2023-05-07T05:21:28;5.32;;;2.90;;
55647;SDS011;45266;48.756;9.246;2023-05-07T05:22:30;5.15;;;2.97;;
55647;SDS011;45266;48.756;9.246;2023-05-07T05:23:32;3.65;;;3.33;;
55647;SDS011;45266;48.756;9.246;2023-05-07T05:24:34;3.75;;;3.00;;
55647;SDS011;45266;48.756;9.246;2023-05-07T05:25:36;3.95;;;2.70;;
55647;SDS011;45266;48.756;9.246;2023-05-07T05:26:38;3.58;;;2.70;;
55647;SDS011;45266;48.756;9.246;2023-05-07T05:27:40;3.10;;;2.85;;
55647;SDS011;45266;48.756;9.246;2023-05-07T05:28:41;3.58;;;2.88;;
55647;SDS011;45266;48.756;9.246;2023-05-07T05:29:43;3.65;;;2.90;;
55647;SDS011;45266;48.756;9.246;2023-05-07T05:30:45;3.97;;;3.08;;
55647;SDS011;45266;48.756;9.246;2023-05-07T05:31:47;3.42;;;3.10;;
55647;SDS011;45266;48.756;9.246;2023-05-07T05:32:49;3.67;;;2.97;;
55647;SDS011;45266;48.756;9.246;2023-05-07T05:33:51;4.88;;;3.20;;
55647;SDS011;45266;48.756;9.246;2023-05-07T05:34:53;3.40;;;2.90;;
55647;SDS011;45266;48.756;9.246;2023-05-07T05:35:55;3.55;;;3.05;;
55647;SDS011;45266;48.756;9.246;2023-05-07T05:36:57;6.13;;;3.42;;
55647;SDS011;45266;48.756;9.246;2023-05-07T05:38:00;4.00;;;3.38;;
55647;SDS011;45266;48.756;9.246;2023-05-07T05:39:02;5.25;;;3.38;;
55647;SDS011;45266;48.756;9.246;2023-05-07T05:40:04;3.97;;;3.00;;
55647;SDS011;45266;48.756;9.246;2023-05-07T05:41:06;3.40;;;3.10;;
55647;SDS011;45266;48.756;9.246;2023-05-07T05:42:08;3.50;;;3.05;;
55647;SDS011;45266;48.756;9.246;2023-05-07T05:43:10;3.95;;;3.35;;
55647;SDS011;45266;48.756;9.246;2023-05-07T05:44:12;4.10;;;3.22;;
55647;SDS011;45266;48.756;9.246;2023-05-07T05:45:14;3.80;;;3.13;;
55647;SDS011;45266;48.756;9.246;2023-05-07T05:46:16;3.97;;;2.90;;
55647;SDS011;45266;48.756;9.246;2023-05-07T05:47:17;5.70;;;3.22;;
55647;SDS011;45266;48.756;9.246;2023-05-07T05:48:19;6.40;;;3.45;;
55647;SDS011;45266;48.756;9.246;2023-05-07T05:49:21;3.15;;;2.85;;
55647;SDS011;45266;48.756;9.246;2023-05-07T05:50:23;4.03;;;3.00;;
55647;SDS011;45266;48.756;9.246;2023-05-07T05:51:25;3.13;;;2.83;;
55647;SDS011;45266;48.756;9.246;2023-05-07T05:52:27;3.22;;;2.92;;
55647;SDS011;45266;48.756;9.246;2023-05-07T05:53:29;2.80;;;2.55;;
55647;SDS011;45266;48.756;9.246;2023-05-07T05:54:31;4.03;;;3.00;;
55647;SDS011;45266;48.756;9.246;2023-05-07T05:55:32;3.42;;;3.10;;
55647;SDS011;45266;48.756;9.246;2023-05-07T05:56:36;4.38;;;3.17;;
55647;SDS011;45266;48.756;9.246;2023-05-07T05:57:39;3.28;;;2.80;;
55647;SDS011;45266;48.756;9.246;2023-05-07T05:58:41;4.03;;;3.33;;
55647;SDS011;45266;48.756;9.246;2023-05-07T05:59:43;3.67;;;3.38;;
55647;SDS011;45266;48.756;9.246;2023-05-07T06:00:45;4.18;;;2.97;;
55647;SDS011;45266;48.756;9.246;2023-05-07T06:01:49;4.53;;;3.00;;
55647;SDS011;45266;48.756;9.246;2023-05-07T06:02:51;3.70;;;3.10;;
55647;SDS011;45266;48.756;9.246;2023-05-07T06:03:52;4.22;;;2.92;;
55647;SDS011;45266;48.756;9.246;2023-05-07T06:04:54;3.58;;;2.90;;
55647;SDS011;45266;48.756;9.246;2023-05-07T06:05:56;2.88;;;2.60;;
55647;SDS011;45266;48.756;9.246;2023-05-07T06:06:58;5.28;;;3.17;;
55647;SDS011;45266;48.756;9.246;2023-05-07T06:08:00;5.07;;;3.30;;
55647;SDS011;45266;48.756;9.246;2023-05-07T06:09:01;5.38;;;3.50;;
55647;SDS011;45266;48.756;9.246;2023-05-07T06:10:04;4.60;;;3.40;;
55647;SDS011;45266;48.756;9.246;2023-05-07T06:11:06;3.33;;;2.97;;
55647;SDS011;45266;48.756;9.246;2023-05-07T06:12:08;4.35;;;3.75;;
55647;SDS011;45266;48.756;9.246;2023-05-07T06:13:10;4.63;;;3.38;;
55647;SDS011;45266;48.756;9.246;2023-05-07T06:14:12;4.40;;;3.60;;
55647;SDS011;45266;48.756;9.246;2023-05-07T06:15:14;3.80;;;3.45;;